sensor_id;sensor_type;location;lat;lon;timestamp;P1;durP1;ratioP1;P2;durP2;ratioP2
46675;SDS011;32412;51.478;5.694;2023-05-24T00:00:38;11.50;;;2.95;;
46675;SDS011;32412;51.478;5.694;2023-05-24T00:03:04;10.80;;;3.13;;
46675;SDS011;32412;51.478;5.694;2023-05-24T00:05:31;12.23;;;3.42;;
46675;SDS011;32412;51.478;5.694;2023-05-24T00:07:57;17.08;;;3.22;;
46675;SDS011;32412;51.478;5.694;2023-05-24T00:10:24;8.73;;;3.25;;
46675;SDS011;32412;51.478;5.694;2023-05-24T00:12:50;11.98;;;3.08;;
46675;SDS011;32412;51.478;5.694;2023-05-24T00:15:16;14.15;;;3.65;;
46675;SDS011;32412;51.478;5.694;2023-05-24T00:17:41;13.60;;;3.45;;
46675;SDS011;32412;51.478;5.694;2023-05-24T00:20:08;12.20;;;3.03;;
46675;SDS011;32412;51.478;5.694;2023-05-24T00:22:35;12.18;;;3.45;;
46675;SDS011;32412;51.478;5.694;2023-05-24T00:25:02;13.85;;;3.40;;
46675;SDS011;32412;51.478;5.694;2023-05-24T00:27:27;13.13;;;3.42;;
46675;SDS011;32412;51.478;5.694;2023-05-24T00:29:53;15.32;;;3.67;;
46675;SDS011;32412;51.478;5.694;2023-05-24T00:32:19;15.15;;;3.17;;
46675;SDS011;32412;51.478;5.694;2023-05-24T00:34:44;17.58;;;3.30;;
46675;SDS011;32412;51.478;5.694;2023-05-24T00:37:10;10.07;;;3.30;;
46675;SDS011;32412;51.478;5.694;2023-05-24T00:39:36;16.33;;;3.63;;
46675;SDS011;32412;51.478;5.694;2023-05-24T00:42:02;15.45;;;3.78;;
46675;SDS011;32412;51.478;5.694;2023-05-24T00:44:29;11.02;;;3.03;;
46675;SDS011;32412;51.478;5.694;2023-05-24T00:46:55;12.90;;;3.40;;
46675;SDS011;32412;51.478;5.694;2023-05-24T00:49:20;11.38;;;3.30;;
46675;SDS011;32412;51.478;5.694;2023-05-24T00:51:47;13.07;;;3.38;;
46675;SDS011;32412;51.478;5.694;2023-05-24T00:54:14;10.23;;;3.08;;
46675;SDS011;32412;51.478;5.694;2023-05-24T00:56:41;8.18;;;2.65;;
46675;SDS011;32412;51.478;5.694;2023-05-24T00:59:07;10.00;;;3.08;;
46675;SDS011;32412;51.478;5.694;2023-05-24T01:01:33;14.30;;;3.40;;
46675;SDS011;32412;51.478;5.694;2023-05-24T01:04:01;8.15;;;3.58;;
46675;SDS011;32412;51.478;5.694;2023-05-24T01:06:27;14.02;;;3.28;;
46675;SDS011;32412;51.478;5.694;2023-05-24T01:14:06;11.35;;;3.60;;
46675;SDS011;32412;51.478;5.694;2023-05-24T01:25:51;12.13;;;3.60;;
46675;SDS011;32412;51.478;5.694;2023-05-24T01:28:38;10.55;;;3.47;;
46675;SDS011;32412;51.478;5.694;2023-05-24T01:31:05;13.00;;;3.65;;
46675;SDS011;32412;51.478;5.694;2023-05-24T01:33:32;19.17;;;4.10;;
46675;SDS011;32412;51.478;5.694;2023-05-24T01:35:58;16.75;;;3.90;;
46675;SDS011;32412;51.478;5.694;2023-05-24T01:38:23;14.23;;;4.00;;
46675;SDS011;32412;51.478;5.694;2023-05-24T01:40:50;12.88;;;4.15;;
46675;SDS011;32412;51.478;5.694;2023-05-24T01:43:32;13.40;;;4.25;;
46675;SDS011;32412;51.478;5.694;2023-05-24T01:46:41;11.25;;;3.55;;
46675;SDS011;32412;51.478;5.694;2023-05-24T01:49:48;10.20;;;3.70;;
46675;SDS011;32412;51.478;5.694;2023-05-24T01:52:36;12.32;;;3.90;;
46675;SDS011;32412;51.478;5.694;2023-05-24T01:55:53;15.25;;;3.72;;
46675;SDS011;32412;51.478;5.694;2023-05-24T01:58:56;14.50;;;3.97;;
46675;SDS011;32412;51.478;5.694;2023-05-24T02:05:52;10.70;;;3.47;;
46675;SDS011;32412;51.478;5.694;2023-05-24T02:15:34;11.13;;;3.88;;
46675;SDS011;32412;51.478;5.694;2023-05-24T02:18:05;18.25;;;4.15;;
46675;SDS011;32412;51.478;5.694;2023-05-24T02:23:46;8.73;;;3.63;;
46675;SDS011;32412;51.478;5.694;2023-05-24T02:26:15;8.55;;;3.65;;
46675;SDS011;32412;51.478;5.694;2023-05-24T02:28:44;10.75;;;3.60;;
46675;SDS011;32412;51.478;5.694;2023-05-24T02:31:10;11.02;;;3.80;;
46675;SDS011;32412;51.478;5.694;2023-05-24T02:33:55;12.55;;;3.78;;
46675;SDS011;32412;51.478;5.694;2023-05-24T02:36:22;10.23;;;3.75;;
46675;SDS011;32412;51.478;5.694;2023-05-24T02:38:51;13.02;;;3.42;;
46675;SDS011;32412;51.478;5.694;2023-05-24T02:41:17;8.70;;;4.03;;
46675;SDS011;32412;51.478;5.694;2023-05-24T02:43:44;19.20;;;4.60;;
46675;SDS011;32412;51.478;5.694;2023-05-24T02:46:16;16.63;;;4.63;;
46675;SDS011;32412;51.478;5.694;2023-05-24T02:48:44;16.70;;;4.38;;
46675;SDS011;32412;51.478;5.694;2023-05-24T02:51:55;11.57;;;4.13;;
46675;SDS011;32412;51.478;5.694;2023-05-24T02:54:11;12.80;;;4.45;;
46675;SDS011;32412;51.478;5.694;2023-05-24T02:59:53;18.23;;;4.70;;
46675;SDS011;32412;51.478;5.694;2023-05-24T03:02:33;14.45;;;4.60;;
46675;SDS011;32412;51.478;5.694;2023-05-24T03:05:02;16.05;;;4.38;;
46675;SDS011;32412;51.478;5.694;2023-05-24T03:07:28;18.50;;;5.18;;
46675;SDS011;32412;51.478;5.694;2023-05-24T03:09:54;15.32;;;5.15;;
46675;SDS011;32412;51.478;5.694;2023-05-24T03:12:31;14.48;;;4.70;;
46675;SDS011;32412;51.478;5.694;2023-05-24T03:15:12;16.63;;;4.40;;
46675;SDS011;32412;51.478;5.694;2023-05-24T03:17:44;13.38;;;4.47;;
46675;SDS011;32412;51.478;5.694;2023-05-24T03:20:10;14.90;;;4.57;;
46675;SDS011;32412;51.478;5.694;2023-05-24T03:22:57;20.75;;;4.63;;
46675;SDS011;32412;51.478;5.694;2023-05-24T03:25:33;16.85;;;3.97;;
46675;SDS011;32412;51.478;5.694;2023-05-24T03:27:59;20.27;;;5.40;;
46675;SDS011;32412;51.478;5.694;2023-05-24T03:33:54;12.27;;;4.50;;
46675;SDS011;32412;51.478;5.694;2023-05-24T03:36:32;12.88;;;4.88;;
46675;SDS011;32412;51.478;5.694;2023-05-24T03:42:36;14.88;;;4.13;;
46675;SDS011;32412;51.478;5.694;2023-05-24T03:45:20;14.13;;;5.03;;
46675;SDS011;32412;51.478;5.694;2023-05-24T03:54:34;14.23;;;5.22;;
46675;SDS011;32412;51.478;5.694;2023-05-24T04:11:20;16.70;;;5.07;;
46675;SDS011;32412;51.478;5.694;2023-05-24T04:17:39;20.10;;;4.50;;
46675;SDS011;32412;51.478;5.694;2023-05-24T04:21:00;13.65;;;4.95;;
46675;SDS011;32412;51.478;5.694;2023-05-24T04:23:52;17.02;;;5.15;;
46675;SDS011;32412;51.478;5.694;2023-05-24T04:26:19;10.27;;;4.10;;
46675;SDS011;32412;51.478;5.694;2023-05-24T04:28:46;17.42;;;5.40;;
46675;SDS011;32412;51.478;5.694;2023-05-24T04:31:12;13.95;;;4.68;;
46675;SDS011;32412;51.478;5.694;2023-05-24T04:33:39;20.92;;;4.72;;
46675;SDS011;32412;51.478;5.694;2023-05-24T04:36:06;18.15;;;4.85;;
46675;SDS011;32412;51.478;5.694;2023-05-24T04:38:32;19.20;;;5.40;;
46675;SDS011;32412;51.478;5.694;2023-05-24T04:41:00;16.55;;;5.18;;
46675;SDS011;32412;51.478;5.694;2023-05-24T04:43:26;14.30;;;5.43;;
46675;SDS011;32412;51.478;5.694;2023-05-24T04:45:53;22.75;;;5.95;;
46675;SDS011;32412;51.478;5.694;2023-05-24T04:48:22;19.33;;;5.95;;
46675;SDS011;32412;51.478;5.694;2023-05-24T04:50:55;19.00;;;5.75;;
46675;SDS011;32412;51.478;5.694;2023-05-24T04:53:22;18.98;;;5.50;;
46675;SDS011;32412;51.478;5.694;2023-05-24T04:55:48;20.65;;;5.72;;
46675;SDS011;32412;51.478;5.694;2023-05-24T04:58:14;16.23;;;5.95;;
46675;SDS011;32412;51.478;5.694;2023-05-24T05:00:41;26.00;;;5.90;;
46675;SDS011;32412;51.478;5.694;2023-05-24T05:03:07;25.00;;;6.07;;
46675;SDS011;32412;51.478;5.694;2023-05-24T05:05:33;20.95;;;5.70;;
46675;SDS011;32412;51.478;5.694;2023-05-24T05:07:59;17.95;;;5.50;;
46675;SDS011;32412;51.478;5.694;2023-05-24T05:10:25;19.63;;;5.93;;
46675;SDS011;32412;51.478;5.694;2023-05-24T05:12:51;20.60;;;6.70;;
46675;SDS011;32412;51.478;5.694;2023-05-24T05:15:17;22.00;;;6.15;;
46675;SDS011;32412;51.478;5.694;2023-05-24T05:17:45;19.77;;;6.55;;
46675;SDS011;32412;51.478;5.694;2023-05-24T05:20:10;21.70;;;5.72;;
46675;SDS011;32412;51.478;5.694;2023-05-24T05:22:36;20.38;;;5.57;;
46675;SDS011;32412;51.478;5.694;2023-05-24T05:25:02;13.75;;;5.13;;
46675;SDS011;32412;51.478;5.694;2023-05-24T05:27:28;18.98;;;5.90;;
46675;SDS011;32412;51.478;5.694;2023-05-24T05:29:54;20.40;;;5.90;;
46675;SDS011;32412;51.478;5.694;2023-05-24T05:32:20;27.25;;;6.40;;
46675;SDS011;32412;51.478;5.694;2023-05-24T05:34:45;27.20;;;5.60;;
46675;SDS011;32412;51.478;5.694;2023-05-24T05:37:11;24.02;;;6.40;;
46675;SDS011;32412;51.478;5.694;2023-05-24T05:39:37;19.52;;;5.80;;
46675;SDS011;32412;51.478;5.694;2023-05-24T05:42:02;20.02;;;5.85;;
46675;SDS011;32412;51.478;5.694;2023-05-24T05:44:28;17.65;;;6.05;;
46675;SDS011;32412;51.478;5.694;2023-05-24T05:46:54;17.30;;;5.85;;
46675;SDS011;32412;51.478;5.694;2023-05-24T05:49:19;23.02;;;6.07;;
46675;SDS011;32412;51.478;5.694;2023-05-24T05:51:45;20.05;;;5.75;;
46675;SDS011;32412;51.478;5.694;2023-05-24T05:54:11;24.58;;;6.75;;
46675;SDS011;32412;51.478;5.694;2023-05-24T05:56:42;19.35;;;5.22;;
46675;SDS011;32412;51.478;5.694;2023-05-24T05:59:11;18.50;;;5.30;;
46675;SDS011;32412;51.478;5.694;2023-05-24T06:01:38;21.30;;;5.95;;
46675;SDS011;32412;51.478;5.694;2023-05-24T06:04:05;20.08;;;5.63;;
46675;SDS011;32412;51.478;5.694;2023-05-24T06:06:30;14.80;;;5.63;;
46675;SDS011;32412;51.478;5.694;2023-05-24T06:08:57;21.60;;;5.82;;
46675;SDS011;32412;51.478;5.694;2023-05-24T06:11:23;15.70;;;5.75;;
46675;SDS011;32412;51.478;5.694;2023-05-24T06:13:48;21.00;;;5.75;;
46675;SDS011;32412;51.478;5.694;2023-05-24T06:16:14;24.17;;;6.28;;
46675;SDS011;32412;51.478;5.694;2023-05-24T06:18:40;18.58;;;6.25;;
46675;SDS011;32412;51.478;5.694;2023-05-24T06:21:06;28.75;;;6.63;;
46675;SDS011;32412;51.478;5.694;2023-05-24T06:23:34;19.60;;;5.97;;
46675;SDS011;32412;51.478;5.694;2023-05-24T06:26:01;27.27;;;7.20;;
46675;SDS011;32412;51.478;5.694;2023-05-24T06:28:28;23.63;;;6.07;;
46675;SDS011;32412;51.478;5.694;2023-05-24T06:30:53;26.08;;;7.43;;
46675;SDS011;32412;51.478;5.694;2023-05-24T06:33:19;19.95;;;6.75;;
46675;SDS011;32412;51.478;5.694;2023-05-24T06:35:46;20.50;;;6.55;;
46675;SDS011;32412;51.478;5.694;2023-05-24T06:38:12;21.48;;;6.55;;
46675;SDS011;32412;51.478;5.694;2023-05-24T06:40:39;23.65;;;6.75;;
46675;SDS011;32412;51.478;5.694;2023-05-24T06:43:05;20.77;;;6.80;;
46675;SDS011;32412;51.478;5.694;2023-05-24T06:45:31;24.02;;;6.43;;
46675;SDS011;32412;51.478;5.694;2023-05-24T06:47:56;21.42;;;6.63;;
46675;SDS011;32412;51.478;5.694;2023-05-24T06:50:22;19.65;;;5.70;;
46675;SDS011;32412;51.478;5.694;2023-05-24T06:52:48;18.65;;;6.75;;
46675;SDS011;32412;51.478;5.694;2023-05-24T06:55:13;18.83;;;5.18;;
46675;SDS011;32412;51.478;5.694;2023-05-24T06:57:39;23.85;;;5.47;;
46675;SDS011;32412;51.478;5.694;2023-05-24T07:00:06;22.95;;;5.88;;
46675;SDS011;32412;51.478;5.694;2023-05-24T07:02:36;21.17;;;5.88;;
46675;SDS011;32412;51.478;5.694;2023-05-24T07:05:02;18.40;;;5.57;;
46675;SDS011;32412;51.478;5.694;2023-05-24T07:07:29;21.25;;;6.35;;
46675;SDS011;32412;51.478;5.694;2023-05-24T07:09:55;18.48;;;6.10;;
46675;SDS011;32412;51.478;5.694;2023-05-24T07:12:20;16.23;;;5.38;;
46675;SDS011;32412;51.478;5.694;2023-05-24T07:14:47;20.02;;;5.78;;
46675;SDS011;32412;51.478;5.694;2023-05-24T07:17:13;16.58;;;6.18;;
46675;SDS011;32412;51.478;5.694;2023-05-24T07:19:38;21.17;;;6.13;;
46675;SDS011;32412;51.478;5.694;2023-05-24T07:22:05;19.45;;;6.03;;
46675;SDS011;32412;51.478;5.694;2023-05-24T07:24:31;19.17;;;6.03;;
46675;SDS011;32412;51.478;5.694;2023-05-24T07:26:57;14.05;;;4.95;;
46675;SDS011;32412;51.478;5.694;2023-05-24T07:29:23;19.38;;;5.22;;
46675;SDS011;32412;51.478;5.694;2023-05-24T07:31:48;15.02;;;4.38;;
46675;SDS011;32412;51.478;5.694;2023-05-24T07:34:14;18.55;;;5.25;;
46675;SDS011;32412;51.478;5.694;2023-05-24T07:36:40;20.80;;;5.40;;
46675;SDS011;32412;51.478;5.694;2023-05-24T07:39:06;14.48;;;4.82;;
46675;SDS011;32412;51.478;5.694;2023-05-24T07:41:39;18.02;;;5.35;;
46675;SDS011;32412;51.478;5.694;2023-05-24T07:44:05;19.52;;;4.80;;
46675;SDS011;32412;51.478;5.694;2023-05-24T07:46:31;17.52;;;5.85;;
46675;SDS011;32412;51.478;5.694;2023-05-24T07:48:57;17.83;;;5.15;;
46675;SDS011;32412;51.478;5.694;2023-05-24T07:51:23;16.63;;;4.85;;
46675;SDS011;32412;51.478;5.694;2023-05-24T07:53:49;16.20;;;4.85;;
46675;SDS011;32412;51.478;5.694;2023-05-24T07:56:15;21.10;;;4.90;;
46675;SDS011;32412;51.478;5.694;2023-05-24T07:58:41;15.55;;;4.70;;
46675;SDS011;32412;51.478;5.694;2023-05-24T08:01:10;14.32;;;5.07;;
46675;SDS011;32412;51.478;5.694;2023-05-24T08:03:37;21.60;;;4.93;;
46675;SDS011;32412;51.478;5.694;2023-05-24T08:06:03;15.43;;;5.00;;
46675;SDS011;32412;51.478;5.694;2023-05-24T08:08:29;17.63;;;4.85;;
46675;SDS011;32412;51.478;5.694;2023-05-24T08:10:55;13.43;;;4.78;;
46675;SDS011;32412;51.478;5.694;2023-05-24T08:13:20;18.15;;;4.60;;
46675;SDS011;32412;51.478;5.694;2023-05-24T08:15:46;16.73;;;4.45;;
46675;SDS011;32412;51.478;5.694;2023-05-24T08:18:12;17.95;;;4.43;;
46675;SDS011;32412;51.478;5.694;2023-05-24T08:20:37;18.90;;;4.05;;
46675;SDS011;32412;51.478;5.694;2023-05-24T08:23:04;20.65;;;4.43;;
46675;SDS011;32412;51.478;5.694;2023-05-24T08:25:30;16.08;;;4.68;;
46675;SDS011;32412;51.478;5.694;2023-05-24T08:27:55;16.15;;;5.13;;
46675;SDS011;32412;51.478;5.694;2023-05-24T08:30:21;13.65;;;4.60;;
46675;SDS011;32412;51.478;5.694;2023-05-24T08:32:47;19.35;;;4.68;;
46675;SDS011;32412;51.478;5.694;2023-05-24T08:35:13;20.10;;;4.80;;
46675;SDS011;32412;51.478;5.694;2023-05-24T08:37:38;18.73;;;4.60;;
46675;SDS011;32412;51.478;5.694;2023-05-24T08:40:04;19.67;;;4.30;;
46675;SDS011;32412;51.478;5.694;2023-05-24T08:42:33;15.98;;;4.28;;
46675;SDS011;32412;51.478;5.694;2023-05-24T08:45:02;15.63;;;4.18;;
46675;SDS011;32412;51.478;5.694;2023-05-24T08:47:33;15.95;;;4.35;;
46675;SDS011;32412;51.478;5.694;2023-05-24T08:50:01;14.80;;;4.25;;
46675;SDS011;32412;51.478;5.694;2023-05-24T08:52:27;16.83;;;4.45;;
46675;SDS011;32412;51.478;5.694;2023-05-24T08:54:55;16.67;;;4.32;;
46675;SDS011;32412;51.478;5.694;2023-05-24T08:57:23;15.10;;;3.85;;
46675;SDS011;32412;51.478;5.694;2023-05-24T08:59:50;11.98;;;3.85;;
46675;SDS011;32412;51.478;5.694;2023-05-24T09:02:19;15.63;;;4.25;;
46675;SDS011;32412;51.478;5.694;2023-05-24T09:04:46;14.30;;;3.83;;
46675;SDS011;32412;51.478;5.694;2023-05-24T09:07:13;11.57;;;3.35;;
46675;SDS011;32412;51.478;5.694;2023-05-24T09:09:42;11.77;;;3.70;;
46675;SDS011;32412;51.478;5.694;2023-05-24T09:12:14;14.48;;;3.40;;
46675;SDS011;32412;51.478;5.694;2023-05-24T09:14:43;11.02;;;3.50;;
46675;SDS011;32412;51.478;5.694;2023-05-24T09:17:13;14.27;;;3.85;;
46675;SDS011;32412;51.478;5.694;2023-05-24T09:19:42;12.10;;;3.50;;
46675;SDS011;32412;51.478;5.694;2023-05-24T09:22:14;15.55;;;3.70;;
46675;SDS011;32412;51.478;5.694;2023-05-24T09:24:47;11.20;;;3.83;;
46675;SDS011;32412;51.478;5.694;2023-05-24T09:27:14;9.75;;;3.22;;
46675;SDS011;32412;51.478;5.694;2023-05-24T09:29:45;13.48;;;3.85;;
46675;SDS011;32412;51.478;5.694;2023-05-24T09:32:16;12.73;;;3.40;;
46675;SDS011;32412;51.478;5.694;2023-05-24T09:34:44;12.10;;;3.55;;
46675;SDS011;32412;51.478;5.694;2023-05-24T09:37:14;11.40;;;3.40;;
46675;SDS011;32412;51.478;5.694;2023-05-24T09:39:42;11.32;;;3.08;;
46675;SDS011;32412;51.478;5.694;2023-05-24T09:42:15;7.78;;;3.72;;
46675;SDS011;32412;51.478;5.694;2023-05-24T09:44:59;7.13;;;3.47;;
46675;SDS011;32412;51.478;5.694;2023-05-24T09:47:29;13.87;;;3.23;;
46675;SDS011;32412;51.478;5.694;2023-05-24T09:49:55;9.32;;;3.13;;
46675;SDS011;32412;51.478;5.694;2023-05-24T09:52:21;11.25;;;3.95;;
46675;SDS011;32412;51.478;5.694;2023-05-24T09:54:47;13.80;;;3.05;;
46675;SDS011;32412;51.478;5.694;2023-05-24T09:57:17;12.00;;;3.58;;
46675;SDS011;32412;51.478;5.694;2023-05-24T09:59:46;11.23;;;3.75;;
46675;SDS011;32412;51.478;5.694;2023-05-24T10:02:16;12.23;;;3.30;;
46675;SDS011;32412;51.478;5.694;2023-05-24T10:04:45;11.13;;;3.60;;
46675;SDS011;32412;51.478;5.694;2023-05-24T10:07:12;9.38;;;3.45;;
46675;SDS011;32412;51.478;5.694;2023-05-24T10:09:39;10.77;;;3.50;;
46675;SDS011;32412;51.478;5.694;2023-05-24T10:12:06;15.45;;;3.60;;
46675;SDS011;32412;51.478;5.694;2023-05-24T10:14:36;9.57;;;3.58;;
46675;SDS011;32412;51.478;5.694;2023-05-24T10:17:02;12.02;;;3.88;;
46675;SDS011;32412;51.478;5.694;2023-05-24T10:19:33;8.98;;;3.58;;
46675;SDS011;32412;51.478;5.694;2023-05-24T10:21:59;15.07;;;3.70;;
46675;SDS011;32412;51.478;5.694;2023-05-24T10:24:29;9.00;;;3.97;;
46675;SDS011;32412;51.478;5.694;2023-05-24T10:27:03;17.70;;;3.65;;
46675;SDS011;32412;51.478;5.694;2023-05-24T10:32:12;13.23;;;3.25;;
46675;SDS011;32412;51.478;5.694;2023-05-24T10:34:40;11.23;;;3.45;;
46675;SDS011;32412;51.478;5.694;2023-05-24T10:37:07;13.95;;;3.40;;
46675;SDS011;32412;51.478;5.694;2023-05-24T10:39:33;13.38;;;3.60;;
46675;SDS011;32412;51.478;5.694;2023-05-24T10:42:03;11.70;;;3.13;;
46675;SDS011;32412;51.478;5.694;2023-05-24T10:44:30;13.65;;;3.83;;
46675;SDS011;32412;51.478;5.694;2023-05-24T10:49:34;13.43;;;3.70;;
46675;SDS011;32412;51.478;5.694;2023-05-24T10:52:01;16.45;;;4.05;;
46675;SDS011;32412;51.478;5.694;2023-05-24T10:54:31;11.60;;;3.50;;
46675;SDS011;32412;51.478;5.694;2023-05-24T10:56:59;12.43;;;3.40;;
46675;SDS011;32412;51.478;5.694;2023-05-24T10:59:29;12.07;;;4.30;;
46675;SDS011;32412;51.478;5.694;2023-05-24T11:02:01;13.95;;;4.13;;
46675;SDS011;32412;51.478;5.694;2023-05-24T11:04:36;14.95;;;3.70;;
46675;SDS011;32412;51.478;5.694;2023-05-24T11:07:10;13.45;;;3.72;;
46675;SDS011;32412;51.478;5.694;2023-05-24T11:09:38;12.07;;;3.50;;
46675;SDS011;32412;51.478;5.694;2023-05-24T11:12:20;13.75;;;3.60;;
46675;SDS011;32412;51.478;5.694;2023-05-24T11:14:47;12.68;;;4.10;;
46675;SDS011;32412;51.478;5.694;2023-05-24T11:17:20;12.77;;;3.25;;
46675;SDS011;32412;51.478;5.694;2023-05-24T11:19:51;10.88;;;3.75;;
46675;SDS011;32412;51.478;5.694;2023-05-24T11:22:18;7.85;;;2.78;;
46675;SDS011;32412;51.478;5.694;2023-05-24T11:24:50;14.02;;;3.17;;
46675;SDS011;32412;51.478;5.694;2023-05-24T11:27:17;12.77;;;3.67;;
46675;SDS011;32412;51.478;5.694;2023-05-24T11:29:43;9.88;;;3.10;;
46675;SDS011;32412;51.478;5.694;2023-05-24T11:32:13;6.82;;;3.10;;
46675;SDS011;32412;51.478;5.694;2023-05-24T11:34:40;11.20;;;3.53;;
46675;SDS011;32412;51.478;5.694;2023-05-24T11:37:09;15.40;;;3.30;;
46675;SDS011;32412;51.478;5.694;2023-05-24T11:39:35;11.00;;;3.30;;
46675;SDS011;32412;51.478;5.694;2023-05-24T11:42:04;11.27;;;3.33;;
46675;SDS011;32412;51.478;5.694;2023-05-24T11:44:31;10.10;;;3.50;;
46675;SDS011;32412;51.478;5.694;2023-05-24T11:46:58;14.80;;;3.78;;
46675;SDS011;32412;51.478;5.694;2023-05-24T11:49:28;11.68;;;3.92;;
46675;SDS011;32412;51.478;5.694;2023-05-24T11:51:55;10.48;;;3.72;;
46675;SDS011;32412;51.478;5.694;2023-05-24T11:54:25;14.02;;;3.75;;
46675;SDS011;32412;51.478;5.694;2023-05-24T11:56:52;17.10;;;3.95;;
46675;SDS011;32412;51.478;5.694;2023-05-24T11:59:23;18.20;;;3.85;;
46675;SDS011;32412;51.478;5.694;2023-05-24T12:02:10;14.15;;;3.60;;
46675;SDS011;32412;51.478;5.694;2023-05-24T12:04:35;12.27;;;3.65;;
46675;SDS011;32412;51.478;5.694;2023-05-24T12:07:01;11.48;;;3.47;;
46675;SDS011;32412;51.478;5.694;2023-05-24T12:09:27;14.25;;;4.45;;
46675;SDS011;32412;51.478;5.694;2023-05-24T12:11:53;10.55;;;3.80;;
46675;SDS011;32412;51.478;5.694;2023-05-24T12:14:23;11.57;;;3.67;;
46675;SDS011;32412;51.478;5.694;2023-05-24T12:16:54;12.23;;;3.60;;
46675;SDS011;32412;51.478;5.694;2023-05-24T12:19:21;16.35;;;3.95;;
46675;SDS011;32412;51.478;5.694;2023-05-24T12:21:49;12.25;;;3.70;;
46675;SDS011;32412;51.478;5.694;2023-05-24T12:24:22;12.20;;;3.85;;
46675;SDS011;32412;51.478;5.694;2023-05-24T12:26:50;13.07;;;3.45;;
46675;SDS011;32412;51.478;5.694;2023-05-24T12:29:16;12.65;;;3.67;;
46675;SDS011;32412;51.478;5.694;2023-05-24T12:31:44;9.07;;;3.47;;
46675;SDS011;32412;51.478;5.694;2023-05-24T12:34:19;11.40;;;3.60;;
46675;SDS011;32412;51.478;5.694;2023-05-24T12:36:45;12.05;;;3.20;;
46675;SDS011;32412;51.478;5.694;2023-05-24T12:41:51;18.33;;;3.47;;
46675;SDS011;32412;51.478;5.694;2023-05-24T12:44:27;12.88;;;3.60;;
46675;SDS011;32412;51.478;5.694;2023-05-24T12:46:55;12.52;;;3.70;;
46675;SDS011;32412;51.478;5.694;2023-05-24T12:49:22;10.48;;;3.10;;
46675;SDS011;32412;51.478;5.694;2023-05-24T12:51:48;10.05;;;3.40;;
46675;SDS011;32412;51.478;5.694;2023-05-24T12:54:17;12.75;;;3.53;;
46675;SDS011;32412;51.478;5.694;2023-05-24T12:56:43;9.25;;;3.50;;
46675;SDS011;32412;51.478;5.694;2023-05-24T12:59:09;14.20;;;3.40;;
46675;SDS011;32412;51.478;5.694;2023-05-24T13:01:37;15.68;;;4.00;;
46675;SDS011;32412;51.478;5.694;2023-05-24T13:04:03;10.05;;;3.65;;
46675;SDS011;32412;51.478;5.694;2023-05-24T13:06:29;17.08;;;3.90;;
46675;SDS011;32412;51.478;5.694;2023-05-24T13:08:55;11.82;;;3.63;;
46675;SDS011;32412;51.478;5.694;2023-05-24T13:11:21;14.23;;;3.25;;
46675;SDS011;32412;51.478;5.694;2023-05-24T13:13:49;10.35;;;3.17;;
46675;SDS011;32412;51.478;5.694;2023-05-24T13:16:15;8.77;;;3.10;;
46675;SDS011;32412;51.478;5.694;2023-05-24T13:18:41;9.15;;;3.67;;
46675;SDS011;32412;51.478;5.694;2023-05-24T13:21:07;9.63;;;3.60;;
46675;SDS011;32412;51.478;5.694;2023-05-24T13:23:33;9.20;;;3.58;;
46675;SDS011;32412;51.478;5.694;2023-05-24T13:26:03;11.48;;;3.33;;
46675;SDS011;32412;51.478;5.694;2023-05-24T13:28:31;9.35;;;3.53;;
46675;SDS011;32412;51.478;5.694;2023-05-24T13:30:57;9.85;;;3.40;;
46675;SDS011;32412;51.478;5.694;2023-05-24T13:33:23;12.85;;;3.08;;
46675;SDS011;32412;51.478;5.694;2023-05-24T13:35:50;7.65;;;3.30;;
46675;SDS011;32412;51.478;5.694;2023-05-24T13:38:18;10.52;;;3.80;;
46675;SDS011;32412;51.478;5.694;2023-05-24T13:40:45;9.57;;;3.25;;
46675;SDS011;32412;51.478;5.694;2023-05-24T13:43:11;11.73;;;3.83;;
46675;SDS011;32412;51.478;5.694;2023-05-24T13:45:36;10.05;;;2.92;;
46675;SDS011;32412;51.478;5.694;2023-05-24T13:48:02;9.00;;;3.25;;
46675;SDS011;32412;51.478;5.694;2023-05-24T13:50:32;10.10;;;3.40;;
46675;SDS011;32412;51.478;5.694;2023-05-24T13:52:59;13.63;;;3.33;;
46675;SDS011;32412;51.478;5.694;2023-05-24T13:55:26;7.68;;;3.50;;
46675;SDS011;32412;51.478;5.694;2023-05-24T13:57:53;9.73;;;2.92;;
46675;SDS011;32412;51.478;5.694;2023-05-24T14:00:21;7.82;;;3.08;;
46675;SDS011;32412;51.478;5.694;2023-05-24T14:02:47;13.20;;;3.50;;
46675;SDS011;32412;51.478;5.694;2023-05-24T14:05:14;8.00;;;3.45;;
46675;SDS011;32412;51.478;5.694;2023-05-24T14:07:39;11.57;;;3.50;;
46675;SDS011;32412;51.478;5.694;2023-05-24T14:10:05;13.00;;;3.55;;
46675;SDS011;32412;51.478;5.694;2023-05-24T14:12:32;8.18;;;2.90;;
46675;SDS011;32412;51.478;5.694;2023-05-24T14:14:57;8.02;;;3.00;;
46675;SDS011;32412;51.478;5.694;2023-05-24T14:17:23;13.65;;;3.15;;
46675;SDS011;32412;51.478;5.694;2023-05-24T14:19:49;10.93;;;3.30;;
46675;SDS011;32412;51.478;5.694;2023-05-24T14:22:15;10.55;;;3.78;;
46675;SDS011;32412;51.478;5.694;2023-05-24T14:24:41;12.35;;;3.15;;
46675;SDS011;32412;51.478;5.694;2023-05-24T14:27:08;15.52;;;3.92;;
46675;SDS011;32412;51.478;5.694;2023-05-24T14:29:34;8.25;;;3.08;;
46675;SDS011;32412;51.478;5.694;2023-05-24T14:31:59;8.63;;;3.45;;
46675;SDS011;32412;51.478;5.694;2023-05-24T14:34:25;15.52;;;3.65;;
46675;SDS011;32412;51.478;5.694;2023-05-24T14:36:51;14.38;;;3.42;;
46675;SDS011;32412;51.478;5.694;2023-05-24T14:39:18;11.93;;;3.65;;
46675;SDS011;32412;51.478;5.694;2023-05-24T14:41:44;5.45;;;3.10;;
46675;SDS011;32412;51.478;5.694;2023-05-24T14:44:10;11.60;;;3.38;;
46675;SDS011;32412;51.478;5.694;2023-05-24T14:46:35;12.40;;;3.63;;
46675;SDS011;32412;51.478;5.694;2023-05-24T14:49:01;9.57;;;3.15;;
46675;SDS011;32412;51.478;5.694;2023-05-24T14:51:27;15.70;;;3.75;;
46675;SDS011;32412;51.478;5.694;2023-05-24T14:53:53;8.50;;;2.78;;
46675;SDS011;32412;51.478;5.694;2023-05-24T14:56:19;11.15;;;2.78;;
46675;SDS011;32412;51.478;5.694;2023-05-24T14:58:45;10.30;;;3.38;;
46675;SDS011;32412;51.478;5.694;2023-05-24T15:01:11;6.45;;;3.30;;
46675;SDS011;32412;51.478;5.694;2023-05-24T15:03:47;9.05;;;2.80;;
46675;SDS011;32412;51.478;5.694;2023-05-24T15:06:13;9.02;;;3.20;;
46675;SDS011;32412;51.478;5.694;2023-05-24T15:08:40;10.07;;;2.85;;
46675;SDS011;32412;51.478;5.694;2023-05-24T15:11:06;6.88;;;2.85;;
46675;SDS011;32412;51.478;5.694;2023-05-24T15:13:31;11.02;;;3.30;;
46675;SDS011;32412;51.478;5.694;2023-05-24T15:15:57;10.63;;;3.28;;
46675;SDS011;32412;51.478;5.694;2023-05-24T15:18:24;17.38;;;3.83;;
46675;SDS011;32412;51.478;5.694;2023-05-24T15:20:52;6.22;;;3.00;;
46675;SDS011;32412;51.478;5.694;2023-05-24T15:23:19;8.07;;;3.03;;
46675;SDS011;32412;51.478;5.694;2023-05-24T15:25:45;12.05;;;3.40;;
46675;SDS011;32412;51.478;5.694;2023-05-24T15:28:10;9.07;;;3.30;;
46675;SDS011;32412;51.478;5.694;2023-05-24T15:30:38;9.38;;;2.90;;
46675;SDS011;32412;51.478;5.694;2023-05-24T15:33:08;10.48;;;3.10;;
46675;SDS011;32412;51.478;5.694;2023-05-24T15:35:34;10.20;;;2.97;;
46675;SDS011;32412;51.478;5.694;2023-05-24T15:38:00;12.88;;;3.03;;
46675;SDS011;32412;51.478;5.694;2023-05-24T15:40:26;10.68;;;2.88;;
46675;SDS011;32412;51.478;5.694;2023-05-24T15:42:51;12.75;;;3.40;;
46675;SDS011;32412;51.478;5.694;2023-05-24T15:45:17;10.98;;;3.35;;
46675;SDS011;32412;51.478;5.694;2023-05-24T15:47:43;8.43;;;3.22;;
46675;SDS011;32412;51.478;5.694;2023-05-24T15:50:09;7.32;;;2.72;;
46675;SDS011;32412;51.478;5.694;2023-05-24T15:52:35;15.52;;;3.70;;
46675;SDS011;32412;51.478;5.694;2023-05-24T15:55:01;6.75;;;2.85;;